<?xml version="1.0" encoding="UTF-8" standalone="no" ?>
<gpx xmlns="http://www.topografix.com/GPX/1/1" xmlns:xsi="http://www.w3.org/2001/XMLSchema-instance" xsi:schemaLocation="http://www.topografix.com/GPX/1/1 http://www.topografix.com/GPX/1/1/gpx.xsd" version="1.1" creator="VisuGPX - https://www.visugpx.com">
  <metadata>
    <name>Circuit du 12-09-2012</name>
    <desc><![CDATA[Circuit du 12-09-2012]]></desc>
  </metadata>
  <wpt lat="45.38382" lon="3.75153">
    <ele>656</ele>
    <name><![CDATA[Start]]></name>
  </wpt>
  <wpt lat="45.38447" lon="3.75376">
    <ele>655.29998779297</ele>
    <name><![CDATA[End]]></name>
  </wpt>
  <trk>
    <name><![CDATA[Circuit du 12-09-2012_1]]></name>
    <trkseg>
      <trkpt lat="45.38382" lon="3.75153">
        <ele>656</ele>
        <time>2012-09-12T16:29:46Z</time>
      </trkpt>
      <trkpt lat="45.38381" lon="3.7516">
        <ele>656.20001220703</ele>
        <time>2012-09-12T16:29:50Z</time>
      </trkpt>
      <trkpt lat="45.38385" lon="3.75175">
        <ele>657.79998779297</ele>
        <time>2012-09-12T16:29:55Z</time>
      </trkpt>
      <trkpt lat="45.38387" lon="3.75181">
        <ele>659.20001220703</ele>
        <time>2012-09-12T16:29:57Z</time>
      </trkpt>
      <trkpt lat="45.3839" lon="3.75188">
        <ele>657.09997558594</ele>
        <time>2012-09-12T16:30:00Z</time>
      </trkpt>
      <trkpt lat="45.38392" lon="3.75194">
        <ele>658</ele>
        <time>2012-09-12T16:30:02Z</time>
      </trkpt>
      <trkpt lat="45.38398" lon="3.75207">
        <ele>658.40002441406</ele>
        <time>2012-09-12T16:30:08Z</time>
      </trkpt>
      <trkpt lat="45.38397" lon="3.75216">
        <ele>658.40002441406</ele>
        <time>2012-09-12T16:30:11Z</time>
      </trkpt>
      <trkpt lat="45.38402" lon="3.7522">
        <ele>655.40002441406</ele>
        <time>2012-09-12T16:30:14Z</time>
      </trkpt>
      <trkpt lat="45.38403" lon="3.75227">
        <ele>655</ele>
        <time>2012-09-12T16:30:17Z</time>
      </trkpt>
      <trkpt lat="45.38404" lon="3.75236">
        <ele>654</ele>
        <time>2012-09-12T16:30:20Z</time>
      </trkpt>
      <trkpt lat="45.38409" lon="3.75244">
        <ele>655.20001220703</ele>
        <time>2012-09-12T16:30:23Z</time>
      </trkpt>
      <trkpt lat="45.38411" lon="3.75252">
        <ele>654.29998779297</ele>
        <time>2012-09-12T16:30:26Z</time>
      </trkpt>
      <trkpt lat="45.3841" lon="3.75259">
        <ele>655.09997558594</ele>
        <time>2012-09-12T16:30:31Z</time>
      </trkpt>
      <trkpt lat="45.38413" lon="3.75265">
        <ele>653.79998779297</ele>
        <time>2012-09-12T16:30:34Z</time>
      </trkpt>
      <trkpt lat="45.38416" lon="3.75271">
        <ele>654.20001220703</ele>
        <time>2012-09-12T16:30:36Z</time>
      </trkpt>
      <trkpt lat="45.38418" lon="3.75279">
        <ele>656</ele>
        <time>2012-09-12T16:30:39Z</time>
      </trkpt>
      <trkpt lat="45.3842" lon="3.75285">
        <ele>655.59997558594</ele>
        <time>2012-09-12T16:30:42Z</time>
      </trkpt>
      <trkpt lat="45.38424" lon="3.75293">
        <ele>656.29998779297</ele>
        <time>2012-09-12T16:30:45Z</time>
      </trkpt>
      <trkpt lat="45.38427" lon="3.75307">
        <ele>658.29998779297</ele>
        <time>2012-09-12T16:30:49Z</time>
      </trkpt>
      <trkpt lat="45.3843" lon="3.75315">
        <ele>655.40002441406</ele>
        <time>2012-09-12T16:30:53Z</time>
      </trkpt>
      <trkpt lat="45.38431" lon="3.75323">
        <ele>655.59997558594</ele>
        <time>2012-09-12T16:30:55Z</time>
      </trkpt>
      <trkpt lat="45.38436" lon="3.75338">
        <ele>654.09997558594</ele>
        <time>2012-09-12T16:31:01Z</time>
      </trkpt>
      <trkpt lat="45.38439" lon="3.75346">
        <ele>654.5</ele>
        <time>2012-09-12T16:31:04Z</time>
      </trkpt>
      <trkpt lat="45.38445" lon="3.75366">
        <ele>658.90002441406</ele>
        <time>2012-09-12T16:31:11Z</time>
      </trkpt>
      <trkpt lat="45.38446" lon="3.75375">
        <ele>659.5</ele>
        <time>2012-09-12T16:31:13Z</time>
      </trkpt>
      <trkpt lat="45.38451" lon="3.75383">
        <ele>661.70001220703</ele>
        <time>2012-09-12T16:31:16Z</time>
      </trkpt>
      <trkpt lat="45.38453" lon="3.75389">
        <ele>661.79998779297</ele>
        <time>2012-09-12T16:31:18Z</time>
      </trkpt>
      <trkpt lat="45.38453" lon="3.75397">
        <ele>655.79998779297</ele>
        <time>2012-09-12T16:31:24Z</time>
      </trkpt>
      <trkpt lat="45.38457" lon="3.75406">
        <ele>657.90002441406</ele>
        <time>2012-09-12T16:31:27Z</time>
      </trkpt>
      <trkpt lat="45.3846" lon="3.75413">
        <ele>658</ele>
        <time>2012-09-12T16:31:29Z</time>
      </trkpt>
      <trkpt lat="45.38462" lon="3.7542">
        <ele>658.90002441406</ele>
        <time>2012-09-12T16:31:32Z</time>
      </trkpt>
      <trkpt lat="45.38464" lon="3.75426">
        <ele>659.70001220703</ele>
        <time>2012-09-12T16:31:34Z</time>
      </trkpt>
      <trkpt lat="45.38467" lon="3.75435">
        <ele>660.09997558594</ele>
        <time>2012-09-12T16:31:36Z</time>
      </trkpt>
      <trkpt lat="45.38469" lon="3.75448">
        <ele>660.29998779297</ele>
        <time>2012-09-12T16:31:41Z</time>
      </trkpt>
      <trkpt lat="45.3847" lon="3.75456">
        <ele>660.79998779297</ele>
        <time>2012-09-12T16:31:44Z</time>
      </trkpt>
      <trkpt lat="45.38472" lon="3.75465">
        <ele>657.09997558594</ele>
        <time>2012-09-12T16:31:53Z</time>
      </trkpt>
      <trkpt lat="45.38472" lon="3.75473">
        <ele>656</ele>
        <time>2012-09-12T16:32:00Z</time>
      </trkpt>
      <trkpt lat="45.38476" lon="3.7548">
        <ele>654.79998779297</ele>
        <time>2012-09-12T16:32:06Z</time>
      </trkpt>
      <trkpt lat="45.38479" lon="3.75485">
        <ele>654.59997558594</ele>
        <time>2012-09-12T16:32:10Z</time>
      </trkpt>
      <trkpt lat="45.38482" lon="3.75492">
        <ele>654.09997558594</ele>
        <time>2012-09-12T16:32:14Z</time>
      </trkpt>
      <trkpt lat="45.38483" lon="3.75498">
        <ele>654.29998779297</ele>
        <time>2012-09-12T16:32:18Z</time>
      </trkpt>
      <trkpt lat="45.38486" lon="3.75506">
        <ele>653.20001220703</ele>
        <time>2012-09-12T16:32:24Z</time>
      </trkpt>
      <trkpt lat="45.38486" lon="3.75514">
        <ele>651.20001220703</ele>
        <time>2012-09-12T16:32:27Z</time>
      </trkpt>
      <trkpt lat="45.38489" lon="3.7552">
        <ele>652.5</ele>
        <time>2012-09-12T16:32:33Z</time>
      </trkpt>
      <trkpt lat="45.38492" lon="3.75526">
        <ele>651.79998779297</ele>
        <time>2012-09-12T16:32:38Z</time>
      </trkpt>
      <trkpt lat="45.38496" lon="3.75538">
        <ele>651.29998779297</ele>
        <time>2012-09-12T16:32:45Z</time>
      </trkpt>
      <trkpt lat="45.38497" lon="3.75546">
        <ele>652.09997558594</ele>
        <time>2012-09-12T16:32:49Z</time>
      </trkpt>
      <trkpt lat="45.38499" lon="3.75552">
        <ele>650.5</ele>
        <time>2012-09-12T16:32:54Z</time>
      </trkpt>
      <trkpt lat="45.385" lon="3.7556">
        <ele>648.90002441406</ele>
        <time>2012-09-12T16:32:58Z</time>
      </trkpt>
      <trkpt lat="45.38502" lon="3.75569">
        <ele>648.5</ele>
        <time>2012-09-12T16:33:05Z</time>
      </trkpt>
      <trkpt lat="45.38504" lon="3.75576">
        <ele>648.90002441406</ele>
        <time>2012-09-12T16:33:10Z</time>
      </trkpt>
      <trkpt lat="45.385" lon="3.75582">
        <ele>650.29998779297</ele>
        <time>2012-09-12T16:33:12Z</time>
      </trkpt>
      <trkpt lat="45.38499" lon="3.7559">
        <ele>651.09997558594</ele>
        <time>2012-09-12T16:33:15Z</time>
      </trkpt>
      <trkpt lat="45.38501" lon="3.75597">
        <ele>653.79998779297</ele>
        <time>2012-09-12T16:33:22Z</time>
      </trkpt>
      <trkpt lat="45.38504" lon="3.75605">
        <ele>653.20001220703</ele>
        <time>2012-09-12T16:33:27Z</time>
      </trkpt>
      <trkpt lat="45.38504" lon="3.75616">
        <ele>651.29998779297</ele>
        <time>2012-09-12T16:33:36Z</time>
      </trkpt>
      <trkpt lat="45.38506" lon="3.75625">
        <ele>652.5</ele>
        <time>2012-09-12T16:33:41Z</time>
      </trkpt>
      <trkpt lat="45.38506" lon="3.75631">
        <ele>652.90002441406</ele>
        <time>2012-09-12T16:33:44Z</time>
      </trkpt>
      <trkpt lat="45.38509" lon="3.75638">
        <ele>653.09997558594</ele>
        <time>2012-09-12T16:33:47Z</time>
      </trkpt>
      <trkpt lat="45.38512" lon="3.75646">
        <ele>652.20001220703</ele>
        <time>2012-09-12T16:33:51Z</time>
      </trkpt>
      <trkpt lat="45.38513" lon="3.75656">
        <ele>655.5</ele>
        <time>2012-09-12T16:33:54Z</time>
      </trkpt>
      <trkpt lat="45.38518" lon="3.75662">
        <ele>655.70001220703</ele>
        <time>2012-09-12T16:33:58Z</time>
      </trkpt>
      <trkpt lat="45.38524" lon="3.75667">
        <ele>658.59997558594</ele>
        <time>2012-09-12T16:34:02Z</time>
      </trkpt>
      <trkpt lat="45.38533" lon="3.75666">
        <ele>657.29998779297</ele>
        <time>2012-09-12T16:34:07Z</time>
      </trkpt>
      <trkpt lat="45.38538" lon="3.75665">
        <ele>656.29998779297</ele>
        <time>2012-09-12T16:34:10Z</time>
      </trkpt>
      <trkpt lat="45.38542" lon="3.75657">
        <ele>652.59997558594</ele>
        <time>2012-09-12T16:34:12Z</time>
      </trkpt>
      <trkpt lat="45.38555" lon="3.75662">
        <ele>652</ele>
        <time>2012-09-12T16:34:19Z</time>
      </trkpt>
      <trkpt lat="45.3856" lon="3.75665">
        <ele>654.20001220703</ele>
        <time>2012-09-12T16:34:21Z</time>
      </trkpt>
      <trkpt lat="45.38566" lon="3.75666">
        <ele>656</ele>
        <time>2012-09-12T16:34:24Z</time>
      </trkpt>
      <trkpt lat="45.38571" lon="3.75669">
        <ele>656</ele>
        <time>2012-09-12T16:34:27Z</time>
      </trkpt>
      <trkpt lat="45.38579" lon="3.75674">
        <ele>658.29998779297</ele>
        <time>2012-09-12T16:34:31Z</time>
      </trkpt>
      <trkpt lat="45.38582" lon="3.7568">
        <ele>657.40002441406</ele>
        <time>2012-09-12T16:34:33Z</time>
      </trkpt>
      <trkpt lat="45.38592" lon="3.75688">
        <ele>656.09997558594</ele>
        <time>2012-09-12T16:34:40Z</time>
      </trkpt>
      <trkpt lat="45.38598" lon="3.75693">
        <ele>656.70001220703</ele>
        <time>2012-09-12T16:34:43Z</time>
      </trkpt>
      <trkpt lat="45.38603" lon="3.757">
        <ele>656.70001220703</ele>
        <time>2012-09-12T16:34:46Z</time>
      </trkpt>
      <trkpt lat="45.38608" lon="3.75704">
        <ele>658.5</ele>
        <time>2012-09-12T16:34:48Z</time>
      </trkpt>
      <trkpt lat="45.38612" lon="3.7571">
        <ele>660.70001220703</ele>
        <time>2012-09-12T16:34:51Z</time>
      </trkpt>
      <trkpt lat="45.38617" lon="3.75716">
        <ele>661.90002441406</ele>
        <time>2012-09-12T16:34:54Z</time>
      </trkpt>
      <trkpt lat="45.3862" lon="3.75722">
        <ele>662.29998779297</ele>
        <time>2012-09-12T16:34:57Z</time>
      </trkpt>
      <trkpt lat="45.38624" lon="3.75727">
        <ele>661</ele>
        <time>2012-09-12T16:34:59Z</time>
      </trkpt>
      <trkpt lat="45.38628" lon="3.75731">
        <ele>661.59997558594</ele>
        <time>2012-09-12T16:35:02Z</time>
      </trkpt>
      <trkpt lat="45.38632" lon="3.75735">
        <ele>661.20001220703</ele>
        <time>2012-09-12T16:35:05Z</time>
      </trkpt>
      <trkpt lat="45.38638" lon="3.75739">
        <ele>660.5</ele>
        <time>2012-09-12T16:35:09Z</time>
      </trkpt>
      <trkpt lat="45.38643" lon="3.75743">
        <ele>660.90002441406</ele>
        <time>2012-09-12T16:35:12Z</time>
      </trkpt>
      <trkpt lat="45.38647" lon="3.75747">
        <ele>659.20001220703</ele>
        <time>2012-09-12T16:35:15Z</time>
      </trkpt>
      <trkpt lat="45.3865" lon="3.75752">
        <ele>659.59997558594</ele>
        <time>2012-09-12T16:35:17Z</time>
      </trkpt>
      <trkpt lat="45.38654" lon="3.75756">
        <ele>659.5</ele>
        <time>2012-09-12T16:35:19Z</time>
      </trkpt>
      <trkpt lat="45.38658" lon="3.7576">
        <ele>657.70001220703</ele>
        <time>2012-09-12T16:35:22Z</time>
      </trkpt>
      <trkpt lat="45.38663" lon="3.75764">
        <ele>656.79998779297</ele>
        <time>2012-09-12T16:35:26Z</time>
      </trkpt>
      <trkpt lat="45.3867" lon="3.7577">
        <ele>657.90002441406</ele>
        <time>2012-09-12T16:35:30Z</time>
      </trkpt>
      <trkpt lat="45.38674" lon="3.75775">
        <ele>659.29998779297</ele>
        <time>2012-09-12T16:35:33Z</time>
      </trkpt>
      <trkpt lat="45.38679" lon="3.7578">
        <ele>659.90002441406</ele>
        <time>2012-09-12T16:35:36Z</time>
      </trkpt>
      <trkpt lat="45.38682" lon="3.75786">
        <ele>658.79998779297</ele>
        <time>2012-09-12T16:35:39Z</time>
      </trkpt>
      <trkpt lat="45.38685" lon="3.75792">
        <ele>659.70001220703</ele>
        <time>2012-09-12T16:35:42Z</time>
      </trkpt>
      <trkpt lat="45.38688" lon="3.75799">
        <ele>659.70001220703</ele>
        <time>2012-09-12T16:35:46Z</time>
      </trkpt>
      <trkpt lat="45.3869" lon="3.75805">
        <ele>661.59997558594</ele>
        <time>2012-09-12T16:35:50Z</time>
      </trkpt>
      <trkpt lat="45.38694" lon="3.7581">
        <ele>661.29998779297</ele>
        <time>2012-09-12T16:35:53Z</time>
      </trkpt>
      <trkpt lat="45.38698" lon="3.75815">
        <ele>661.09997558594</ele>
        <time>2012-09-12T16:35:57Z</time>
      </trkpt>
      <trkpt lat="45.38702" lon="3.75819">
        <ele>660.29998779297</ele>
        <time>2012-09-12T16:36:04Z</time>
      </trkpt>
      <trkpt lat="45.38706" lon="3.75824">
        <ele>659.70001220703</ele>
        <time>2012-09-12T16:36:09Z</time>
      </trkpt>
      <trkpt lat="45.3871" lon="3.75828">
        <ele>659.40002441406</ele>
        <time>2012-09-12T16:36:15Z</time>
      </trkpt>
      <trkpt lat="45.38713" lon="3.75835">
        <ele>659.20001220703</ele>
        <time>2012-09-12T16:36:21Z</time>
      </trkpt>
      <trkpt lat="45.38717" lon="3.75842">
        <ele>659.90002441406</ele>
        <time>2012-09-12T16:36:27Z</time>
      </trkpt>
      <trkpt lat="45.38722" lon="3.75848">
        <ele>660.70001220703</ele>
        <time>2012-09-12T16:36:33Z</time>
      </trkpt>
      <trkpt lat="45.38726" lon="3.75854">
        <ele>659.79998779297</ele>
        <time>2012-09-12T16:36:37Z</time>
      </trkpt>
      <trkpt lat="45.3873" lon="3.75861">
        <ele>658.40002441406</ele>
        <time>2012-09-12T16:36:45Z</time>
      </trkpt>
      <trkpt lat="45.38735" lon="3.75865">
        <ele>658.20001220703</ele>
        <time>2012-09-12T16:36:50Z</time>
      </trkpt>
      <trkpt lat="45.3874" lon="3.75874">
        <ele>656.20001220703</ele>
        <time>2012-09-12T16:36:55Z</time>
      </trkpt>
      <trkpt lat="45.38745" lon="3.75879">
        <ele>655.5</ele>
        <time>2012-09-12T16:37:02Z</time>
      </trkpt>
      <trkpt lat="45.38749" lon="3.75885">
        <ele>655.90002441406</ele>
        <time>2012-09-12T16:37:08Z</time>
      </trkpt>
      <trkpt lat="45.38754" lon="3.75889">
        <ele>656.70001220703</ele>
        <time>2012-09-12T16:37:14Z</time>
      </trkpt>
      <trkpt lat="45.38759" lon="3.75893">
        <ele>657.09997558594</ele>
        <time>2012-09-12T16:37:18Z</time>
      </trkpt>
      <trkpt lat="45.38764" lon="3.75894">
        <ele>656.09997558594</ele>
        <time>2012-09-12T16:37:21Z</time>
      </trkpt>
      <trkpt lat="45.38768" lon="3.75896">
        <ele>655.90002441406</ele>
        <time>2012-09-12T16:37:25Z</time>
      </trkpt>
      <trkpt lat="45.38771" lon="3.75901">
        <ele>658.09997558594</ele>
        <time>2012-09-12T16:37:29Z</time>
      </trkpt>
      <trkpt lat="45.38776" lon="3.75905">
        <ele>657.59997558594</ele>
        <time>2012-09-12T16:37:36Z</time>
      </trkpt>
      <trkpt lat="45.3878" lon="3.75905">
        <ele>656.09997558594</ele>
        <time>2012-09-12T16:37:40Z</time>
      </trkpt>
      <trkpt lat="45.38785" lon="3.75908">
        <ele>657.20001220703</ele>
        <time>2012-09-12T16:37:44Z</time>
      </trkpt>
      <trkpt lat="45.3879" lon="3.7591">
        <ele>659.20001220703</ele>
        <time>2012-09-12T16:37:47Z</time>
      </trkpt>
      <trkpt lat="45.38796" lon="3.75914">
        <ele>659.40002441406</ele>
        <time>2012-09-12T16:37:50Z</time>
      </trkpt>
      <trkpt lat="45.38802" lon="3.75914">
        <ele>660.5</ele>
        <time>2012-09-12T16:37:53Z</time>
      </trkpt>
      <trkpt lat="45.38808" lon="3.75915">
        <ele>661.29998779297</ele>
        <time>2012-09-12T16:37:56Z</time>
      </trkpt>
      <trkpt lat="45.38813" lon="3.75918">
        <ele>662.40002441406</ele>
        <time>2012-09-12T16:37:59Z</time>
      </trkpt>
      <trkpt lat="45.38819" lon="3.75919">
        <ele>661</ele>
        <time>2012-09-12T16:38:02Z</time>
      </trkpt>
      <trkpt lat="45.38831" lon="3.75916">
        <ele>656.59997558594</ele>
        <time>2012-09-12T16:38:10Z</time>
      </trkpt>
      <trkpt lat="45.38842" lon="3.75916">
        <ele>654.09997558594</ele>
        <time>2012-09-12T16:38:15Z</time>
      </trkpt>
      <trkpt lat="45.38847" lon="3.75918">
        <ele>655.20001220703</ele>
        <time>2012-09-12T16:38:18Z</time>
      </trkpt>
      <trkpt lat="45.38864" lon="3.7592">
        <ele>656.79998779297</ele>
        <time>2012-09-12T16:38:30Z</time>
      </trkpt>
      <trkpt lat="45.38868" lon="3.75918">
        <ele>655.03594970703</ele>
        <time>2012-09-12T16:38:31Z</time>
      </trkpt>
      <trkpt lat="45.38877" lon="3.75917">
        <ele>651.29998779297</ele>
        <time>2012-09-12T16:38:35Z</time>
      </trkpt>
      <trkpt lat="45.38882" lon="3.75914">
        <ele>648.90002441406</ele>
        <time>2012-09-12T16:38:37Z</time>
      </trkpt>
      <trkpt lat="45.38888" lon="3.75914">
        <ele>648.20001220703</ele>
        <time>2012-09-12T16:38:40Z</time>
      </trkpt>
      <trkpt lat="45.38893" lon="3.75915">
        <ele>649.09997558594</ele>
        <time>2012-09-12T16:38:43Z</time>
      </trkpt>
      <trkpt lat="45.38899" lon="3.75915">
        <ele>647.70001220703</ele>
        <time>2012-09-12T16:38:46Z</time>
      </trkpt>
      <trkpt lat="45.38905" lon="3.75917">
        <ele>648.70001220703</ele>
        <time>2012-09-12T16:38:49Z</time>
      </trkpt>
      <trkpt lat="45.3891" lon="3.75918">
        <ele>651.29998779297</ele>
        <time>2012-09-12T16:38:52Z</time>
      </trkpt>
      <trkpt lat="45.38915" lon="3.75918">
        <ele>651.70001220703</ele>
        <time>2012-09-12T16:38:55Z</time>
      </trkpt>
      <trkpt lat="45.38922" lon="3.75923">
        <ele>653.59997558594</ele>
        <time>2012-09-12T16:38:58Z</time>
      </trkpt>
      <trkpt lat="45.38928" lon="3.75923">
        <ele>651.5</ele>
        <time>2012-09-12T16:39:01Z</time>
      </trkpt>
      <trkpt lat="45.38932" lon="3.75919">
        <ele>652</ele>
        <time>2012-09-12T16:39:03Z</time>
      </trkpt>
      <trkpt lat="45.38944" lon="3.75916">
        <ele>650.59997558594</ele>
        <time>2012-09-12T16:39:08Z</time>
      </trkpt>
      <trkpt lat="45.38951" lon="3.75919">
        <ele>651.59997558594</ele>
        <time>2012-09-12T16:39:11Z</time>
      </trkpt>
      <trkpt lat="45.3896" lon="3.75926">
        <ele>652.29998779297</ele>
        <time>2012-09-12T16:39:16Z</time>
      </trkpt>
      <trkpt lat="45.38966" lon="3.75929">
        <ele>651.29998779297</ele>
        <time>2012-09-12T16:39:19Z</time>
      </trkpt>
      <trkpt lat="45.38971" lon="3.75932">
        <ele>650</ele>
        <time>2012-09-12T16:39:22Z</time>
      </trkpt>
      <trkpt lat="45.38976" lon="3.75938">
        <ele>649.70001220703</ele>
        <time>2012-09-12T16:39:25Z</time>
      </trkpt>
      <trkpt lat="45.38981" lon="3.75939">
        <ele>650.20001220703</ele>
        <time>2012-09-12T16:39:27Z</time>
      </trkpt>
      <trkpt lat="45.38992" lon="3.75947">
        <ele>652</ele>
        <time>2012-09-12T16:39:33Z</time>
      </trkpt>
      <trkpt lat="45.38998" lon="3.75947">
        <ele>651.09997558594</ele>
        <time>2012-09-12T16:39:36Z</time>
      </trkpt>
      <trkpt lat="45.39003" lon="3.75946">
        <ele>649.40002441406</ele>
        <time>2012-09-12T16:39:39Z</time>
      </trkpt>
      <trkpt lat="45.3901" lon="3.75944">
        <ele>647.90002441406</ele>
        <time>2012-09-12T16:39:42Z</time>
      </trkpt>
      <trkpt lat="45.39019" lon="3.75948">
        <ele>648.90002441406</ele>
        <time>2012-09-12T16:39:46Z</time>
      </trkpt>
      <trkpt lat="45.39025" lon="3.75951">
        <ele>651.09997558594</ele>
        <time>2012-09-12T16:39:50Z</time>
      </trkpt>
      <trkpt lat="45.39029" lon="3.75949">
        <ele>652.59997558594</ele>
        <time>2012-09-12T16:39:54Z</time>
      </trkpt>
      <trkpt lat="45.39031" lon="3.75954">
        <ele>653.5</ele>
        <time>2012-09-12T16:40:00Z</time>
      </trkpt>
      <trkpt lat="45.39035" lon="3.75957">
        <ele>654.29998779297</ele>
        <time>2012-09-12T16:40:02Z</time>
      </trkpt>
      <trkpt lat="45.39041" lon="3.75959">
        <ele>654</ele>
        <time>2012-09-12T16:40:05Z</time>
      </trkpt>
      <trkpt lat="45.39045" lon="3.75955">
        <ele>655.79998779297</ele>
        <time>2012-09-12T16:40:08Z</time>
      </trkpt>
      <trkpt lat="45.3905" lon="3.75956">
        <ele>656.40002441406</ele>
        <time>2012-09-12T16:40:11Z</time>
      </trkpt>
      <trkpt lat="45.39056" lon="3.75957">
        <ele>655.79998779297</ele>
        <time>2012-09-12T16:40:16Z</time>
      </trkpt>
      <trkpt lat="45.3906" lon="3.75961">
        <ele>654.70001220703</ele>
        <time>2012-09-12T16:40:23Z</time>
      </trkpt>
      <trkpt lat="45.39065" lon="3.75963">
        <ele>654.29998779297</ele>
        <time>2012-09-12T16:40:27Z</time>
      </trkpt>
      <trkpt lat="45.39069" lon="3.75961">
        <ele>652.29998779297</ele>
        <time>2012-09-12T16:40:32Z</time>
      </trkpt>
      <trkpt lat="45.39076" lon="3.75967">
        <ele>651.5</ele>
        <time>2012-09-12T16:40:41Z</time>
      </trkpt>
      <trkpt lat="45.39081" lon="3.7597">
        <ele>651.20001220703</ele>
        <time>2012-09-12T16:40:46Z</time>
      </trkpt>
      <trkpt lat="45.39094" lon="3.75976">
        <ele>651.70001220703</ele>
        <time>2012-09-12T16:40:55Z</time>
      </trkpt>
      <trkpt lat="45.39099" lon="3.75975">
        <ele>653</ele>
        <time>2012-09-12T16:40:57Z</time>
      </trkpt>
      <trkpt lat="45.39103" lon="3.7598">
        <ele>653.79998779297</ele>
        <time>2012-09-12T16:41:04Z</time>
      </trkpt>
      <trkpt lat="45.39109" lon="3.75982">
        <ele>654.40002441406</ele>
        <time>2012-09-12T16:41:11Z</time>
      </trkpt>
      <trkpt lat="45.39114" lon="3.75984">
        <ele>654.40002441406</ele>
        <time>2012-09-12T16:41:15Z</time>
      </trkpt>
      <trkpt lat="45.39119" lon="3.75988">
        <ele>652.09997558594</ele>
        <time>2012-09-12T16:41:21Z</time>
      </trkpt>
      <trkpt lat="45.39124" lon="3.75992">
        <ele>653.20001220703</ele>
        <time>2012-09-12T16:41:25Z</time>
      </trkpt>
      <trkpt lat="45.39136" lon="3.75994">
        <ele>648.70001220703</ele>
        <time>2012-09-12T16:41:37Z</time>
      </trkpt>
      <trkpt lat="45.39141" lon="3.75992">
        <ele>648.70001220703</ele>
        <time>2012-09-12T16:41:41Z</time>
      </trkpt>
      <trkpt lat="45.39144" lon="3.75997">
        <ele>647.09997558594</ele>
        <time>2012-09-12T16:41:44Z</time>
      </trkpt>
      <trkpt lat="45.39151" lon="3.75999">
        <ele>643.79998779297</ele>
        <time>2012-09-12T16:41:49Z</time>
      </trkpt>
      <trkpt lat="45.39157" lon="3.75999">
        <ele>645.29998779297</ele>
        <time>2012-09-12T16:41:51Z</time>
      </trkpt>
      <trkpt lat="45.39172" lon="3.7601">
        <ele>646</ele>
        <time>2012-09-12T16:42:01Z</time>
      </trkpt>
      <trkpt lat="45.39179" lon="3.76011">
        <ele>646</ele>
        <time>2012-09-12T16:42:03Z</time>
      </trkpt>
      <trkpt lat="45.39185" lon="3.76012">
        <ele>645.90002441406</ele>
        <time>2012-09-12T16:42:07Z</time>
      </trkpt>
      <trkpt lat="45.39192" lon="3.76016">
        <ele>647.20001220703</ele>
        <time>2012-09-12T16:42:10Z</time>
      </trkpt>
      <trkpt lat="45.39198" lon="3.76017">
        <ele>647.09997558594</ele>
        <time>2012-09-12T16:42:13Z</time>
      </trkpt>
      <trkpt lat="45.3921" lon="3.76023">
        <ele>648.5</ele>
        <time>2012-09-12T16:42:20Z</time>
      </trkpt>
      <trkpt lat="45.39215" lon="3.7602">
        <ele>648.29998779297</ele>
        <time>2012-09-12T16:42:22Z</time>
      </trkpt>
      <trkpt lat="45.39225" lon="3.76024">
        <ele>646.79998779297</ele>
        <time>2012-09-12T16:42:26Z</time>
      </trkpt>
      <trkpt lat="45.3923" lon="3.76028">
        <ele>645.79998779297</ele>
        <time>2012-09-12T16:42:31Z</time>
      </trkpt>
      <trkpt lat="45.39236" lon="3.76028">
        <ele>645.09997558594</ele>
        <time>2012-09-12T16:42:34Z</time>
      </trkpt>
      <trkpt lat="45.39243" lon="3.76029">
        <ele>646.59997558594</ele>
        <time>2012-09-12T16:42:38Z</time>
      </trkpt>
      <trkpt lat="45.39249" lon="3.7603">
        <ele>647</ele>
        <time>2012-09-12T16:42:41Z</time>
      </trkpt>
      <trkpt lat="45.39256" lon="3.76031">
        <ele>648.29998779297</ele>
        <time>2012-09-12T16:42:44Z</time>
      </trkpt>
      <trkpt lat="45.39263" lon="3.76032">
        <ele>647.29998779297</ele>
        <time>2012-09-12T16:42:47Z</time>
      </trkpt>
      <trkpt lat="45.39268" lon="3.76034">
        <ele>646.20001220703</ele>
        <time>2012-09-12T16:42:50Z</time>
      </trkpt>
      <trkpt lat="45.39279" lon="3.76034">
        <ele>647.59997558594</ele>
        <time>2012-09-12T16:42:54Z</time>
      </trkpt>
      <trkpt lat="45.39284" lon="3.76035">
        <ele>646.90002441406</ele>
        <time>2012-09-12T16:42:57Z</time>
      </trkpt>
      <trkpt lat="45.39291" lon="3.76032">
        <ele>645.70001220703</ele>
        <time>2012-09-12T16:43:00Z</time>
      </trkpt>
      <trkpt lat="45.393" lon="3.76038">
        <ele>642.59997558594</ele>
        <time>2012-09-12T16:43:05Z</time>
      </trkpt>
      <trkpt lat="45.39306" lon="3.76042">
        <ele>644.20001220703</ele>
        <time>2012-09-12T16:43:08Z</time>
      </trkpt>
      <trkpt lat="45.39312" lon="3.76045">
        <ele>644.79998779297</ele>
        <time>2012-09-12T16:43:11Z</time>
      </trkpt>
      <trkpt lat="45.39317" lon="3.76049">
        <ele>644.29998779297</ele>
        <time>2012-09-12T16:43:14Z</time>
      </trkpt>
      <trkpt lat="45.39322" lon="3.76052">
        <ele>645.20001220703</ele>
        <time>2012-09-12T16:43:16Z</time>
      </trkpt>
      <trkpt lat="45.39327" lon="3.76051">
        <ele>645.79998779297</ele>
        <time>2012-09-12T16:43:17Z</time>
      </trkpt>
      <trkpt lat="45.39332" lon="3.76055">
        <ele>647.29998779297</ele>
        <time>2012-09-12T16:43:21Z</time>
      </trkpt>
      <trkpt lat="45.39337" lon="3.76058">
        <ele>648.29998779297</ele>
        <time>2012-09-12T16:43:24Z</time>
      </trkpt>
      <trkpt lat="45.39342" lon="3.76061">
        <ele>648.29998779297</ele>
        <time>2012-09-12T16:43:27Z</time>
      </trkpt>
      <trkpt lat="45.39347" lon="3.76064">
        <ele>648.20001220703</ele>
        <time>2012-09-12T16:43:30Z</time>
      </trkpt>
      <trkpt lat="45.39354" lon="3.76068">
        <ele>648.59997558594</ele>
        <time>2012-09-12T16:43:33Z</time>
      </trkpt>
      <trkpt lat="45.39359" lon="3.76071">
        <ele>649.40002441406</ele>
        <time>2012-09-12T16:43:36Z</time>
      </trkpt>
      <trkpt lat="45.39363" lon="3.76074">
        <ele>650.09997558594</ele>
        <time>2012-09-12T16:43:38Z</time>
      </trkpt>
      <trkpt lat="45.39369" lon="3.76077">
        <ele>649.90002441406</ele>
        <time>2012-09-12T16:43:42Z</time>
      </trkpt>
      <trkpt lat="45.39364" lon="3.76075">
        <ele>648.70001220703</ele>
        <time>2012-09-12T16:43:52Z</time>
      </trkpt>
      <trkpt lat="45.39359" lon="3.76073">
        <ele>649.20001220703</ele>
        <time>2012-09-12T16:43:56Z</time>
      </trkpt>
      <trkpt lat="45.39354" lon="3.76069">
        <ele>648.09997558594</ele>
        <time>2012-09-12T16:44:00Z</time>
      </trkpt>
      <trkpt lat="45.3935" lon="3.76065">
        <ele>649</ele>
        <time>2012-09-12T16:44:02Z</time>
      </trkpt>
      <trkpt lat="45.39345" lon="3.76063">
        <ele>649.70001220703</ele>
        <time>2012-09-12T16:44:06Z</time>
      </trkpt>
      <trkpt lat="45.39341" lon="3.7606">
        <ele>649.5</ele>
        <time>2012-09-12T16:44:11Z</time>
      </trkpt>
      <trkpt lat="45.39336" lon="3.76058">
        <ele>648.20001220703</ele>
        <time>2012-09-12T16:44:16Z</time>
      </trkpt>
      <trkpt lat="45.39331" lon="3.76055">
        <ele>651.29998779297</ele>
        <time>2012-09-12T16:44:20Z</time>
      </trkpt>
      <trkpt lat="45.39325" lon="3.76052">
        <ele>652.59997558594</ele>
        <time>2012-09-12T16:44:27Z</time>
      </trkpt>
      <trkpt lat="45.39321" lon="3.76049">
        <ele>652.59997558594</ele>
        <time>2012-09-12T16:44:30Z</time>
      </trkpt>
      <trkpt lat="45.39316" lon="3.76047">
        <ele>652.5</ele>
        <time>2012-09-12T16:44:34Z</time>
      </trkpt>
      <trkpt lat="45.39311" lon="3.76047">
        <ele>654.20001220703</ele>
        <time>2012-09-12T16:44:39Z</time>
      </trkpt>
      <trkpt lat="45.39306" lon="3.76044">
        <ele>654</ele>
        <time>2012-09-12T16:44:44Z</time>
      </trkpt>
      <trkpt lat="45.39302" lon="3.76041">
        <ele>655.70001220703</ele>
        <time>2012-09-12T16:44:50Z</time>
      </trkpt>
      <trkpt lat="45.39297" lon="3.76038">
        <ele>655.90002441406</ele>
        <time>2012-09-12T16:44:53Z</time>
      </trkpt>
      <trkpt lat="45.39292" lon="3.76037">
        <ele>651.59997558594</ele>
        <time>2012-09-12T16:45:00Z</time>
      </trkpt>
      <trkpt lat="45.39287" lon="3.76033">
        <ele>652.09997558594</ele>
        <time>2012-09-12T16:45:03Z</time>
      </trkpt>
      <trkpt lat="45.39282" lon="3.76031">
        <ele>652</ele>
        <time>2012-09-12T16:45:08Z</time>
      </trkpt>
      <trkpt lat="45.39277" lon="3.7603">
        <ele>655.09997558594</ele>
        <time>2012-09-12T16:45:14Z</time>
      </trkpt>
      <trkpt lat="45.39272" lon="3.76028">
        <ele>653.70001220703</ele>
        <time>2012-09-12T16:45:19Z</time>
      </trkpt>
      <trkpt lat="45.39267" lon="3.76027">
        <ele>652.20001220703</ele>
        <time>2012-09-12T16:45:23Z</time>
      </trkpt>
      <trkpt lat="45.39262" lon="3.76028">
        <ele>651.90002441406</ele>
        <time>2012-09-12T16:45:28Z</time>
      </trkpt>
      <trkpt lat="45.39256" lon="3.76028">
        <ele>652.90002441406</ele>
        <time>2012-09-12T16:45:33Z</time>
      </trkpt>
      <trkpt lat="45.39251" lon="3.76027">
        <ele>652.70001220703</ele>
        <time>2012-09-12T16:45:37Z</time>
      </trkpt>
      <trkpt lat="45.39246" lon="3.76026">
        <ele>653.40002441406</ele>
        <time>2012-09-12T16:45:43Z</time>
      </trkpt>
      <trkpt lat="45.3924" lon="3.76025">
        <ele>653.09997558594</ele>
        <time>2012-09-12T16:45:46Z</time>
      </trkpt>
      <trkpt lat="45.39235" lon="3.76024">
        <ele>654.20001220703</ele>
        <time>2012-09-12T16:45:49Z</time>
      </trkpt>
      <trkpt lat="45.39231" lon="3.76025">
        <ele>651.09997558594</ele>
        <time>2012-09-12T16:45:52Z</time>
      </trkpt>
      <trkpt lat="45.39226" lon="3.76024">
        <ele>651.90002441406</ele>
        <time>2012-09-12T16:45:54Z</time>
      </trkpt>
      <trkpt lat="45.39221" lon="3.76023">
        <ele>652.20001220703</ele>
        <time>2012-09-12T16:45:56Z</time>
      </trkpt>
      <trkpt lat="45.39217" lon="3.76021">
        <ele>653</ele>
        <time>2012-09-12T16:45:58Z</time>
      </trkpt>
      <trkpt lat="45.39205" lon="3.76019">
        <ele>655.5</ele>
        <time>2012-09-12T16:46:06Z</time>
      </trkpt>
      <trkpt lat="45.392" lon="3.76016">
        <ele>659.29998779297</ele>
        <time>2012-09-12T16:46:09Z</time>
      </trkpt>
      <trkpt lat="45.39194" lon="3.76015">
        <ele>660.70001220703</ele>
        <time>2012-09-12T16:46:12Z</time>
      </trkpt>
      <trkpt lat="45.39189" lon="3.76012">
        <ele>660.70001220703</ele>
        <time>2012-09-12T16:46:14Z</time>
      </trkpt>
      <trkpt lat="45.39179" lon="3.7601">
        <ele>660.90002441406</ele>
        <time>2012-09-12T16:46:18Z</time>
      </trkpt>
      <trkpt lat="45.39167" lon="3.76003">
        <ele>664.90002441406</ele>
        <time>2012-09-12T16:46:23Z</time>
      </trkpt>
      <trkpt lat="45.39162" lon="3.76">
        <ele>664.90002441406</ele>
        <time>2012-09-12T16:46:25Z</time>
      </trkpt>
      <trkpt lat="45.39156" lon="3.75997">
        <ele>665.40002441406</ele>
        <time>2012-09-12T16:46:29Z</time>
      </trkpt>
      <trkpt lat="45.39152" lon="3.75994">
        <ele>664</ele>
        <time>2012-09-12T16:46:31Z</time>
      </trkpt>
      <trkpt lat="45.39147" lon="3.75991">
        <ele>662.20001220703</ele>
        <time>2012-09-12T16:46:34Z</time>
      </trkpt>
      <trkpt lat="45.39142" lon="3.75991">
        <ele>659.5</ele>
        <time>2012-09-12T16:46:37Z</time>
      </trkpt>
      <trkpt lat="45.39136" lon="3.7599">
        <ele>658</ele>
        <time>2012-09-12T16:46:40Z</time>
      </trkpt>
      <trkpt lat="45.39132" lon="3.75987">
        <ele>658.70001220703</ele>
        <time>2012-09-12T16:46:42Z</time>
      </trkpt>
      <trkpt lat="45.39127" lon="3.75985">
        <ele>659.29998779297</ele>
        <time>2012-09-12T16:46:44Z</time>
      </trkpt>
      <trkpt lat="45.39115" lon="3.75983">
        <ele>653.90002441406</ele>
        <time>2012-09-12T16:46:52Z</time>
      </trkpt>
      <trkpt lat="45.39111" lon="3.75979">
        <ele>657</ele>
        <time>2012-09-12T16:46:54Z</time>
      </trkpt>
      <trkpt lat="45.39107" lon="3.75975">
        <ele>658</ele>
        <time>2012-09-12T16:46:56Z</time>
      </trkpt>
      <trkpt lat="45.39101" lon="3.75969">
        <ele>659.59997558594</ele>
        <time>2012-09-12T16:46:58Z</time>
      </trkpt>
      <trkpt lat="45.39097" lon="3.75964">
        <ele>662.09997558594</ele>
        <time>2012-09-12T16:47:00Z</time>
      </trkpt>
      <trkpt lat="45.39091" lon="3.75963">
        <ele>660.90002441406</ele>
        <time>2012-09-12T16:47:03Z</time>
      </trkpt>
      <trkpt lat="45.39086" lon="3.75962">
        <ele>662.09997558594</ele>
        <time>2012-09-12T16:47:06Z</time>
      </trkpt>
      <trkpt lat="45.39081" lon="3.7596">
        <ele>662.40002441406</ele>
        <time>2012-09-12T16:47:08Z</time>
      </trkpt>
      <trkpt lat="45.39076" lon="3.75961">
        <ele>660.40002441406</ele>
        <time>2012-09-12T16:47:11Z</time>
      </trkpt>
      <trkpt lat="45.39071" lon="3.75959">
        <ele>660.20001220703</ele>
        <time>2012-09-12T16:47:14Z</time>
      </trkpt>
      <trkpt lat="45.39064" lon="3.75956">
        <ele>660.90002441406</ele>
        <time>2012-09-12T16:47:17Z</time>
      </trkpt>
      <trkpt lat="45.39055" lon="3.75954">
        <ele>658.79998779297</ele>
        <time>2012-09-12T16:47:23Z</time>
      </trkpt>
      <trkpt lat="45.39046" lon="3.75949">
        <ele>660</ele>
        <time>2012-09-12T16:47:28Z</time>
      </trkpt>
      <trkpt lat="45.39041" lon="3.75949">
        <ele>656.90002441406</ele>
        <time>2012-09-12T16:47:32Z</time>
      </trkpt>
      <trkpt lat="45.39036" lon="3.75947">
        <ele>656.40002441406</ele>
        <time>2012-09-12T16:47:35Z</time>
      </trkpt>
      <trkpt lat="45.39031" lon="3.75945">
        <ele>653.59997558594</ele>
        <time>2012-09-12T16:47:39Z</time>
      </trkpt>
      <trkpt lat="45.39026" lon="3.75945">
        <ele>653.90002441406</ele>
        <time>2012-09-12T16:47:42Z</time>
      </trkpt>
      <trkpt lat="45.39022" lon="3.75942">
        <ele>654.70001220703</ele>
        <time>2012-09-12T16:47:46Z</time>
      </trkpt>
      <trkpt lat="45.39017" lon="3.7594">
        <ele>652.70001220703</ele>
        <time>2012-09-12T16:47:53Z</time>
      </trkpt>
      <trkpt lat="45.39013" lon="3.75941">
        <ele>652.20001220703</ele>
        <time>2012-09-12T16:47:58Z</time>
      </trkpt>
      <trkpt lat="45.39008" lon="3.7594">
        <ele>650</ele>
        <time>2012-09-12T16:48:03Z</time>
      </trkpt>
      <trkpt lat="45.39003" lon="3.75939">
        <ele>648.79998779297</ele>
        <time>2012-09-12T16:48:08Z</time>
      </trkpt>
      <trkpt lat="45.38999" lon="3.75937">
        <ele>650.09997558594</ele>
        <time>2012-09-12T16:48:11Z</time>
      </trkpt>
      <trkpt lat="45.38994" lon="3.75934">
        <ele>649.79998779297</ele>
        <time>2012-09-12T16:48:17Z</time>
      </trkpt>
      <trkpt lat="45.38989" lon="3.75931">
        <ele>651.20001220703</ele>
        <time>2012-09-12T16:48:20Z</time>
      </trkpt>
      <trkpt lat="45.38975" lon="3.75922">
        <ele>654.40002441406</ele>
        <time>2012-09-12T16:48:34Z</time>
      </trkpt>
      <trkpt lat="45.38969" lon="3.75921">
        <ele>655.59997558594</ele>
        <time>2012-09-12T16:48:39Z</time>
      </trkpt>
      <trkpt lat="45.38965" lon="3.75918">
        <ele>657.70001220703</ele>
        <time>2012-09-12T16:48:44Z</time>
      </trkpt>
      <trkpt lat="45.3896" lon="3.75917">
        <ele>655.40002441406</ele>
        <time>2012-09-12T16:48:50Z</time>
      </trkpt>
      <trkpt lat="45.38955" lon="3.75918">
        <ele>654.59997558594</ele>
        <time>2012-09-12T16:48:54Z</time>
      </trkpt>
      <trkpt lat="45.38944" lon="3.75914">
        <ele>654.79998779297</ele>
        <time>2012-09-12T16:49:03Z</time>
      </trkpt>
      <trkpt lat="45.3894" lon="3.75915">
        <ele>654.20001220703</ele>
        <time>2012-09-12T16:49:07Z</time>
      </trkpt>
      <trkpt lat="45.38935" lon="3.75919">
        <ele>654.90002441406</ele>
        <time>2012-09-12T16:49:15Z</time>
      </trkpt>
      <trkpt lat="45.38929" lon="3.75918">
        <ele>653.70001220703</ele>
        <time>2012-09-12T16:49:20Z</time>
      </trkpt>
      <trkpt lat="45.38923" lon="3.75916">
        <ele>653.5</ele>
        <time>2012-09-12T16:49:23Z</time>
      </trkpt>
      <trkpt lat="45.38918" lon="3.75916">
        <ele>653.5</ele>
        <time>2012-09-12T16:49:27Z</time>
      </trkpt>
      <trkpt lat="45.38912" lon="3.75917">
        <ele>655.79998779297</ele>
        <time>2012-09-12T16:49:30Z</time>
      </trkpt>
      <trkpt lat="45.38906" lon="3.75918">
        <ele>655.5</ele>
        <time>2012-09-12T16:49:38Z</time>
      </trkpt>
      <trkpt lat="45.38901" lon="3.75917">
        <ele>655</ele>
        <time>2012-09-12T16:49:43Z</time>
      </trkpt>
      <trkpt lat="45.38895" lon="3.75919">
        <ele>653.70001220703</ele>
        <time>2012-09-12T16:49:49Z</time>
      </trkpt>
      <trkpt lat="45.38889" lon="3.75918">
        <ele>654.90002441406</ele>
        <time>2012-09-12T16:49:54Z</time>
      </trkpt>
      <trkpt lat="45.38884" lon="3.75919">
        <ele>650.90002441406</ele>
        <time>2012-09-12T16:50:00Z</time>
      </trkpt>
      <trkpt lat="45.3888" lon="3.75916">
        <ele>651.79998779297</ele>
        <time>2012-09-12T16:50:06Z</time>
      </trkpt>
      <trkpt lat="45.38875" lon="3.75915">
        <ele>653.20001220703</ele>
        <time>2012-09-12T16:50:11Z</time>
      </trkpt>
      <trkpt lat="45.38869" lon="3.75915">
        <ele>655.29998779297</ele>
        <time>2012-09-12T16:50:14Z</time>
      </trkpt>
      <trkpt lat="45.38863" lon="3.75914">
        <ele>656.70001220703</ele>
        <time>2012-09-12T16:50:18Z</time>
      </trkpt>
      <trkpt lat="45.38856" lon="3.75913">
        <ele>658.20001220703</ele>
        <time>2012-09-12T16:50:21Z</time>
      </trkpt>
      <trkpt lat="45.38851" lon="3.75913">
        <ele>658.70001220703</ele>
        <time>2012-09-12T16:50:24Z</time>
      </trkpt>
      <trkpt lat="45.38844" lon="3.75913">
        <ele>658.79998779297</ele>
        <time>2012-09-12T16:50:27Z</time>
      </trkpt>
      <trkpt lat="45.38838" lon="3.75912">
        <ele>659.5</ele>
        <time>2012-09-12T16:50:30Z</time>
      </trkpt>
      <trkpt lat="45.38833" lon="3.75912">
        <ele>659.79998779297</ele>
        <time>2012-09-12T16:50:33Z</time>
      </trkpt>
      <trkpt lat="45.38827" lon="3.75913">
        <ele>660.29998779297</ele>
        <time>2012-09-12T16:50:36Z</time>
      </trkpt>
      <trkpt lat="45.3882" lon="3.75912">
        <ele>659.09997558594</ele>
        <time>2012-09-12T16:50:40Z</time>
      </trkpt>
      <trkpt lat="45.38812" lon="3.7591">
        <ele>660.20001220703</ele>
        <time>2012-09-12T16:50:43Z</time>
      </trkpt>
      <trkpt lat="45.38806" lon="3.75911">
        <ele>660.5</ele>
        <time>2012-09-12T16:50:46Z</time>
      </trkpt>
      <trkpt lat="45.388" lon="3.7591">
        <ele>661.79998779297</ele>
        <time>2012-09-12T16:50:49Z</time>
      </trkpt>
      <trkpt lat="45.38794" lon="3.75908">
        <ele>662.5</ele>
        <time>2012-09-12T16:50:53Z</time>
      </trkpt>
      <trkpt lat="45.3879" lon="3.75905">
        <ele>662.70001220703</ele>
        <time>2012-09-12T16:50:56Z</time>
      </trkpt>
      <trkpt lat="45.38784" lon="3.75904">
        <ele>664.29998779297</ele>
        <time>2012-09-12T16:50:59Z</time>
      </trkpt>
      <trkpt lat="45.38778" lon="3.75901">
        <ele>665.90002441406</ele>
        <time>2012-09-12T16:51:01Z</time>
      </trkpt>
      <trkpt lat="45.38773" lon="3.75898">
        <ele>665.09997558594</ele>
        <time>2012-09-12T16:51:04Z</time>
      </trkpt>
      <trkpt lat="45.38768" lon="3.75895">
        <ele>664.40002441406</ele>
        <time>2012-09-12T16:51:07Z</time>
      </trkpt>
      <trkpt lat="45.38764" lon="3.75891">
        <ele>664</ele>
        <time>2012-09-12T16:51:10Z</time>
      </trkpt>
      <trkpt lat="45.38754" lon="3.75882">
        <ele>665.29998779297</ele>
        <time>2012-09-12T16:51:15Z</time>
      </trkpt>
      <trkpt lat="45.3875" lon="3.75878">
        <ele>666.20001220703</ele>
        <time>2012-09-12T16:51:18Z</time>
      </trkpt>
      <trkpt lat="45.38746" lon="3.75875">
        <ele>666.09997558594</ele>
        <time>2012-09-12T16:51:21Z</time>
      </trkpt>
      <trkpt lat="45.38741" lon="3.75869">
        <ele>664.79998779297</ele>
        <time>2012-09-12T16:51:24Z</time>
      </trkpt>
      <trkpt lat="45.38737" lon="3.75864">
        <ele>662.90002441406</ele>
        <time>2012-09-12T16:51:27Z</time>
      </trkpt>
      <trkpt lat="45.38732" lon="3.75859">
        <ele>664.59997558594</ele>
        <time>2012-09-12T16:51:30Z</time>
      </trkpt>
      <trkpt lat="45.38729" lon="3.75854">
        <ele>665.40002441406</ele>
        <time>2012-09-12T16:51:32Z</time>
      </trkpt>
      <trkpt lat="45.38725" lon="3.75848">
        <ele>666.70001220703</ele>
        <time>2012-09-12T16:51:35Z</time>
      </trkpt>
      <trkpt lat="45.38721" lon="3.75845">
        <ele>666.29998779297</ele>
        <time>2012-09-12T16:51:38Z</time>
      </trkpt>
      <trkpt lat="45.38718" lon="3.75839">
        <ele>665.79998779297</ele>
        <time>2012-09-12T16:51:41Z</time>
      </trkpt>
      <trkpt lat="45.38715" lon="3.75835">
        <ele>666.20001220703</ele>
        <time>2012-09-12T16:51:44Z</time>
      </trkpt>
      <trkpt lat="45.38709" lon="3.75825">
        <ele>666.59997558594</ele>
        <time>2012-09-12T16:51:48Z</time>
      </trkpt>
      <trkpt lat="45.38705" lon="3.75821">
        <ele>666.90002441406</ele>
        <time>2012-09-12T16:51:51Z</time>
      </trkpt>
      <trkpt lat="45.387" lon="3.75815">
        <ele>667</ele>
        <time>2012-09-12T16:51:54Z</time>
      </trkpt>
      <trkpt lat="45.38697" lon="3.7581">
        <ele>668.70001220703</ele>
        <time>2012-09-12T16:51:56Z</time>
      </trkpt>
      <trkpt lat="45.38694" lon="3.75805">
        <ele>667.5</ele>
        <time>2012-09-12T16:51:59Z</time>
      </trkpt>
      <trkpt lat="45.38691" lon="3.758">
        <ele>665.5</ele>
        <time>2012-09-12T16:52:02Z</time>
      </trkpt>
      <trkpt lat="45.38686" lon="3.75794">
        <ele>661.90002441406</ele>
        <time>2012-09-12T16:52:07Z</time>
      </trkpt>
      <trkpt lat="45.38682" lon="3.75788">
        <ele>662.70001220703</ele>
        <time>2012-09-12T16:52:10Z</time>
      </trkpt>
      <trkpt lat="45.38678" lon="3.75781">
        <ele>662.5</ele>
        <time>2012-09-12T16:52:14Z</time>
      </trkpt>
      <trkpt lat="45.38673" lon="3.75778">
        <ele>661.20001220703</ele>
        <time>2012-09-12T16:52:24Z</time>
      </trkpt>
      <trkpt lat="45.38668" lon="3.75773">
        <ele>660.90002441406</ele>
        <time>2012-09-12T16:52:28Z</time>
      </trkpt>
      <trkpt lat="45.38665" lon="3.75768">
        <ele>661.40002441406</ele>
        <time>2012-09-12T16:52:31Z</time>
      </trkpt>
      <trkpt lat="45.38661" lon="3.75764">
        <ele>659.59997558594</ele>
        <time>2012-09-12T16:52:36Z</time>
      </trkpt>
      <trkpt lat="45.38657" lon="3.75762">
        <ele>658</ele>
        <time>2012-09-12T16:52:39Z</time>
      </trkpt>
      <trkpt lat="45.38652" lon="3.75761">
        <ele>657.59997558594</ele>
        <time>2012-09-12T16:52:46Z</time>
      </trkpt>
      <trkpt lat="45.38644" lon="3.75748">
        <ele>658.90002441406</ele>
        <time>2012-09-12T16:52:53Z</time>
      </trkpt>
      <trkpt lat="45.3864" lon="3.75743">
        <ele>657.79998779297</ele>
        <time>2012-09-12T16:52:56Z</time>
      </trkpt>
      <trkpt lat="45.38637" lon="3.75735">
        <ele>658.09997558594</ele>
        <time>2012-09-12T16:53:03Z</time>
      </trkpt>
      <trkpt lat="45.38634" lon="3.75729">
        <ele>657.90002441406</ele>
        <time>2012-09-12T16:53:07Z</time>
      </trkpt>
      <trkpt lat="45.38627" lon="3.75723">
        <ele>658.59997558594</ele>
        <time>2012-09-12T16:53:12Z</time>
      </trkpt>
      <trkpt lat="45.38623" lon="3.75718">
        <ele>656.5</ele>
        <time>2012-09-12T16:53:16Z</time>
      </trkpt>
      <trkpt lat="45.38618" lon="3.75713">
        <ele>656.79998779297</ele>
        <time>2012-09-12T16:53:24Z</time>
      </trkpt>
      <trkpt lat="45.38614" lon="3.75709">
        <ele>656</ele>
        <time>2012-09-12T16:53:27Z</time>
      </trkpt>
      <trkpt lat="45.38608" lon="3.757">
        <ele>656</ele>
        <time>2012-09-12T16:53:32Z</time>
      </trkpt>
      <trkpt lat="45.38604" lon="3.75696">
        <ele>658.70001220703</ele>
        <time>2012-09-12T16:53:35Z</time>
      </trkpt>
      <trkpt lat="45.38601" lon="3.7569">
        <ele>658.79998779297</ele>
        <time>2012-09-12T16:53:38Z</time>
      </trkpt>
      <trkpt lat="45.38596" lon="3.75688">
        <ele>657.29998779297</ele>
        <time>2012-09-12T16:53:41Z</time>
      </trkpt>
      <trkpt lat="45.3859" lon="3.75686">
        <ele>656.90002441406</ele>
        <time>2012-09-12T16:53:47Z</time>
      </trkpt>
      <trkpt lat="45.38586" lon="3.75684">
        <ele>647.90002441406</ele>
        <time>2012-09-12T16:53:56Z</time>
      </trkpt>
      <trkpt lat="45.38583" lon="3.75679">
        <ele>647</ele>
        <time>2012-09-12T16:53:58Z</time>
      </trkpt>
      <trkpt lat="45.38578" lon="3.75677">
        <ele>648.29998779297</ele>
        <time>2012-09-12T16:54:03Z</time>
      </trkpt>
      <trkpt lat="45.38573" lon="3.75675">
        <ele>648.59997558594</ele>
        <time>2012-09-12T16:54:06Z</time>
      </trkpt>
      <trkpt lat="45.38564" lon="3.75672">
        <ele>651.20001220703</ele>
        <time>2012-09-12T16:54:15Z</time>
      </trkpt>
      <trkpt lat="45.38559" lon="3.75671">
        <ele>652.59997558594</ele>
        <time>2012-09-12T16:54:20Z</time>
      </trkpt>
      <trkpt lat="45.38554" lon="3.7567">
        <ele>654</ele>
        <time>2012-09-12T16:54:24Z</time>
      </trkpt>
      <trkpt lat="45.38542" lon="3.75667">
        <ele>653.09997558594</ele>
        <time>2012-09-12T16:54:32Z</time>
      </trkpt>
      <trkpt lat="45.38536" lon="3.75668">
        <ele>659.09997558594</ele>
        <time>2012-09-12T16:54:37Z</time>
      </trkpt>
      <trkpt lat="45.38531" lon="3.75669">
        <ele>661.20001220703</ele>
        <time>2012-09-12T16:54:42Z</time>
      </trkpt>
      <trkpt lat="45.38526" lon="3.75667">
        <ele>661.5</ele>
        <time>2012-09-12T16:54:46Z</time>
      </trkpt>
      <trkpt lat="45.3852" lon="3.75665">
        <ele>663.59997558594</ele>
        <time>2012-09-12T16:54:49Z</time>
      </trkpt>
      <trkpt lat="45.38507" lon="3.75633">
        <ele>661.20001220703</ele>
        <time>2012-09-12T16:55:03Z</time>
      </trkpt>
      <trkpt lat="45.38504" lon="3.75625">
        <ele>660.5</ele>
        <time>2012-09-12T16:55:06Z</time>
      </trkpt>
      <trkpt lat="45.38505" lon="3.75618">
        <ele>660.20001220703</ele>
        <time>2012-09-12T16:55:08Z</time>
      </trkpt>
      <trkpt lat="45.38503" lon="3.7561">
        <ele>659.90002441406</ele>
        <time>2012-09-12T16:55:11Z</time>
      </trkpt>
      <trkpt lat="45.38502" lon="3.75602">
        <ele>659.70001220703</ele>
        <time>2012-09-12T16:55:14Z</time>
      </trkpt>
      <trkpt lat="45.38503" lon="3.75594">
        <ele>659.59997558594</ele>
        <time>2012-09-12T16:55:17Z</time>
      </trkpt>
      <trkpt lat="45.38502" lon="3.75584">
        <ele>658.5</ele>
        <time>2012-09-12T16:55:21Z</time>
      </trkpt>
      <trkpt lat="45.38501" lon="3.75575">
        <ele>657.40002441406</ele>
        <time>2012-09-12T16:55:24Z</time>
      </trkpt>
      <trkpt lat="45.385" lon="3.75567">
        <ele>656.90002441406</ele>
        <time>2012-09-12T16:55:26Z</time>
      </trkpt>
      <trkpt lat="45.38494" lon="3.75552">
        <ele>658.70001220703</ele>
        <time>2012-09-12T16:55:33Z</time>
      </trkpt>
      <trkpt lat="45.38492" lon="3.75545">
        <ele>659.29998779297</ele>
        <time>2012-09-12T16:55:35Z</time>
      </trkpt>
      <trkpt lat="45.38487" lon="3.75523">
        <ele>659</ele>
        <time>2012-09-12T16:55:42Z</time>
      </trkpt>
      <trkpt lat="45.38487" lon="3.75515">
        <ele>659</ele>
        <time>2012-09-12T16:55:45Z</time>
      </trkpt>
      <trkpt lat="45.38486" lon="3.75507">
        <ele>656.90002441406</ele>
        <time>2012-09-12T16:55:49Z</time>
      </trkpt>
      <trkpt lat="45.38484" lon="3.75501">
        <ele>654.59997558594</ele>
        <time>2012-09-12T16:55:53Z</time>
      </trkpt>
      <trkpt lat="45.38483" lon="3.75494">
        <ele>654</ele>
        <time>2012-09-12T16:55:56Z</time>
      </trkpt>
      <trkpt lat="45.38484" lon="3.75488">
        <ele>648.5</ele>
        <time>2012-09-12T16:56:00Z</time>
      </trkpt>
      <trkpt lat="45.38478" lon="3.75471">
        <ele>647.59997558594</ele>
        <time>2012-09-12T16:56:06Z</time>
      </trkpt>
      <trkpt lat="45.38476" lon="3.75465">
        <ele>648.40002441406</ele>
        <time>2012-09-12T16:56:08Z</time>
      </trkpt>
      <trkpt lat="45.38474" lon="3.75456">
        <ele>647.59997558594</ele>
        <time>2012-09-12T16:56:11Z</time>
      </trkpt>
      <trkpt lat="45.38471" lon="3.7545">
        <ele>648.70001220703</ele>
        <time>2012-09-12T16:56:13Z</time>
      </trkpt>
      <trkpt lat="45.38469" lon="3.75443">
        <ele>651.5</ele>
        <time>2012-09-12T16:56:16Z</time>
      </trkpt>
      <trkpt lat="45.38466" lon="3.75435">
        <ele>650.79998779297</ele>
        <time>2012-09-12T16:56:19Z</time>
      </trkpt>
      <trkpt lat="45.38464" lon="3.75429">
        <ele>651.29998779297</ele>
        <time>2012-09-12T16:56:21Z</time>
      </trkpt>
      <trkpt lat="45.38462" lon="3.75422">
        <ele>649.5</ele>
        <time>2012-09-12T16:56:25Z</time>
      </trkpt>
      <trkpt lat="45.38461" lon="3.75415">
        <ele>649.40002441406</ele>
        <time>2012-09-12T16:56:27Z</time>
      </trkpt>
      <trkpt lat="45.38454" lon="3.75395">
        <ele>652.40002441406</ele>
        <time>2012-09-12T16:56:34Z</time>
      </trkpt>
      <trkpt lat="45.38452" lon="3.75388">
        <ele>653.09997558594</ele>
        <time>2012-09-12T16:56:36Z</time>
      </trkpt>
      <trkpt lat="45.38449" lon="3.75383">
        <ele>655.09997558594</ele>
        <time>2012-09-12T16:56:39Z</time>
      </trkpt>
      <trkpt lat="45.38447" lon="3.75376">
        <ele>655.29998779297</ele>
        <time>2012-09-12T16:56:42Z</time>
      </trkpt>
    </trkseg>
  </trk>
</gpx>